createdAt,value
2022-08-26T00:01:55.955Z,96998.78
2022-08-26T00:04:23.633Z,96994.50
2022-08-26T00:06:50.419Z,96990.78
2022-08-26T00:09:16.953Z,96992.56
2022-08-26T00:11:46.018Z,96989.56
2022-08-26T00:14:14.157Z,96991.25
2022-08-26T00:16:41.063Z,96988.72
2022-08-26T00:19:14.886Z,96994.44
2022-08-26T00:21:41.373Z,96981.91
2022-08-26T00:24:07.791Z,96997.44
2022-08-26T00:26:34.915Z,96994.28
2022-08-26T00:29:01.611Z,96995.91
2022-08-26T00:31:28.729Z,97001.94
2022-08-26T00:33:57.835Z,97002.13
2022-08-26T00:36:24.279Z,96994.53
2022-08-26T00:38:51.021Z,97001.34
2022-08-26T00:41:21.093Z,96995.44
2022-08-26T00:43:48.159Z,96996.97
2022-08-26T00:46:21.821Z,96993.63
2022-08-26T00:48:50.927Z,96985.91
2022-08-26T00:51:19.271Z,96989.69
2022-08-26T00:53:47.346Z,96982.84
2022-08-26T00:56:32.317Z,96985.88
2022-08-26T00:58:59.315Z,96984.66
2022-08-26T01:01:28.197Z,96984.25
2022-08-26T01:03:57.175Z,96982.72
2022-08-26T01:06:23.734Z,96983.75
2022-08-26T01:08:51.337Z,96988.53
2022-08-26T01:11:17.800Z,96990.16
2022-08-26T01:13:45.039Z,96990.38
2022-08-26T01:16:13.374Z,96987.38
2022-08-26T01:18:40.578Z,96987.97
2022-08-26T01:21:25.823Z,96987.97
2022-08-26T01:23:52.288Z,96979.72
2022-08-26T01:26:30.086Z,96977.03
2022-08-26T01:28:58.086Z,96990.16
2022-08-26T01:31:28.401Z,96978.56
2022-08-26T01:34:01.097Z,96984.50
2022-08-26T01:36:27.965Z,96982.78
2022-08-26T01:38:54.387Z,96983.25
2022-08-26T01:41:27.496Z,96983.25
2022-08-26T01:43:56.147Z,96987.56
2022-08-26T01:46:23.007Z,96981.16
2022-08-26T01:48:52.325Z,96990.56
2022-08-26T01:51:20.922Z,96986.03
2022-08-26T01:53:47.571Z,96989.88
2022-08-26T01:56:14.077Z,96996.03
2022-08-26T01:58:45.866Z,96996.50
2022-08-26T02:01:13.375Z,96993.59
2022-08-26T02:03:44.660Z,96987.69
2022-08-26T02:06:11.146Z,96980.25
2022-08-26T02:08:41.397Z,96988.16
2022-08-26T02:11:07.833Z,96978.78
2022-08-26T02:13:35.157Z,96995.13
2022-08-26T02:16:01.687Z,96998.84
2022-08-26T02:18:28.836Z,96991.06
2022-08-26T02:20:55.480Z,96996.41
2022-08-26T02:23:24.381Z,96989.22
2022-08-26T02:25:54.423Z,96993.50
2022-08-26T02:28:20.884Z,96988.75
2022-08-26T02:30:55.428Z,96984.78
2022-08-26T02:33:22.133Z,96991.97
2022-08-26T02:35:48.723Z,96987.22
2022-08-26T02:38:15.173Z,96987.69
2022-08-26T02:40:42.178Z,96990.94
2022-08-26T02:43:08.837Z,96991.88
2022-08-26T02:45:35.929Z,96992.81
2022-08-26T02:48:05.469Z,96995.84
2022-08-26T02:50:32.284Z,97005.00
2022-08-26T02:52:58.725Z,97006.25
2022-08-26T02:55:25.590Z,96998.88
2022-08-26T02:57:52.461Z,97011.16
2022-08-26T03:00:18.961Z,97004.88
2022-08-26T03:02:45.826Z,97003.13
2022-08-26T03:05:12.285Z,97006.00
2022-08-26T03:07:39.099Z,96993.72
2022-08-26T03:10:08.499Z,96996.97
2022-08-26T03:12:35.586Z,96986.53
2022-08-26T03:15:03.481Z,96988.25
2022-08-26T03:17:44.510Z,96979.00
2022-08-26T03:20:11.157Z,96970.41
2022-08-26T03:22:40.166Z,96973.66
2022-08-26T03:25:07.659Z,96977.38
2022-08-26T03:27:34.136Z,96975.75
2022-08-26T03:30:19.387Z,96974.44
2022-08-26T03:32:46.543Z,96975.25
2022-08-26T03:35:12.972Z,96974.91
2022-08-26T03:37:40.437Z,96979.53
2022-08-26T03:40:09.023Z,96984.16
2022-08-26T03:42:36.584Z,96972.75
2022-08-26T03:45:03.594Z,96978.88
2022-08-26T03:47:30.769Z,96982.66
2022-08-26T03:49:57.363Z,96990.47
2022-08-26T03:52:24.313Z,96979.19
2022-08-26T03:54:51.223Z,96979.81
2022-08-26T03:57:17.664Z,96981.78
2022-08-26T03:59:45.760Z,96986.19
2022-08-26T04:02:12.207Z,96982.47
2022-08-26T04:04:38.646Z,96977.97
2022-08-26T04:07:05.172Z,96979.25
2022-08-26T04:09:31.786Z,96983.53
2022-08-26T04:12:02.435Z,96990.22
2022-08-26T04:14:29.874Z,96986.03
2022-08-26T04:16:56.641Z,96987.19
2022-08-26T04:19:24.211Z,96982.25
2022-08-26T04:21:53.584Z,96974.69
2022-08-26T04:24:23.907Z,96979.69
2022-08-26T04:26:50.392Z,96973.91
2022-08-26T04:29:19.620Z,96972.75
2022-08-26T04:31:48.171Z,96975.28
2022-08-26T04:34:14.620Z,96980.34
2022-08-26T04:36:41.921Z,96976.75
2022-08-26T04:39:08.970Z,96983.69
2022-08-26T04:41:35.415Z,96984.03
2022-08-26T04:44:02.446Z,96992.63
2022-08-26T04:46:29.446Z,96992.63
2022-08-26T04:48:56.018Z,96995.50
2022-08-26T04:51:27.991Z,96995.84
2022-08-26T04:53:57.044Z,97002.81
2022-08-26T04:56:31.208Z,96998.53
2022-08-26T04:58:57.639Z,97000.03
2022-08-26T05:01:24.321Z,96990.88
2022-08-26T05:03:50.890Z,97000.94
2022-08-26T05:06:19.104Z,97003.38
2022-08-26T05:08:45.603Z,97009.84
2022-08-26T05:11:12.019Z,97001.06
2022-08-26T05:13:39.229Z,97010.22
2022-08-26T05:16:06.507Z,97006.97
2022-08-26T05:18:34.189Z,97001.19
2022-08-26T05:21:02.621Z,97006.63
2022-08-26T05:23:31.984Z,97006.06
2022-08-26T05:25:59.461Z,97013.47
2022-08-26T05:28:28.365Z,97022.13
2022-08-26T05:30:55.588Z,97020.88
2022-08-26T05:33:22.236Z,97017.16
2022-08-26T05:35:48.682Z,97016.34
2022-08-26T05:38:17.023Z,97023.44
2022-08-26T05:40:44.776Z,97021.72
2022-08-26T05:43:11.981Z,97028.34
2022-08-26T05:45:44.843Z,97029.34
2022-08-26T05:48:12.795Z,97029.03
2022-08-26T05:50:40.219Z,97036.09
2022-08-26T05:53:07.824Z,97033.09
2022-08-26T05:55:35.104Z,97028.59
2022-08-26T05:58:02.723Z,97032.38
2022-08-26T06:00:29.277Z,97036.06
2022-08-26T06:02:55.776Z,97039.00
2022-08-26T06:05:22.403Z,97039.78
2022-08-26T06:08:07.988Z,97038.25
2022-08-26T06:10:37.740Z,97035.91
2022-08-26T06:13:11.854Z,97040.06
2022-08-26T06:15:45.680Z,97038.91
2022-08-26T06:18:12.553Z,97035.41
2022-08-26T06:20:43.618Z,97038.38
2022-08-26T06:23:41.966Z,97047.84
2022-08-26T06:26:08.395Z,97038.16
2022-08-26T06:28:37.532Z,97042.94
2022-08-26T06:31:04.066Z,97042.44
2022-08-26T06:33:31.289Z,97048.75
2022-08-26T06:35:57.760Z,97037.47
2022-08-26T06:38:25.491Z,97041.13
2022-08-26T06:40:53.175Z,97044.66
2022-08-26T06:43:22.594Z,97041.97
2022-08-26T06:45:50.163Z,97045.44
2022-08-26T06:48:18.984Z,97042.91
2022-08-26T06:50:45.437Z,97049.16
2022-08-26T06:53:13.414Z,97052.50
2022-08-26T06:55:41.532Z,97044.53
2022-08-26T06:58:09.524Z,97048.94
2022-08-26T07:00:36.905Z,97050.13
2022-08-26T07:03:05.511Z,97041.59
2022-08-26T07:05:35.051Z,97052.38
2022-08-26T07:08:01.815Z,97057.47
2022-08-26T07:10:29.601Z,97052.41
2022-08-26T07:12:56.040Z,97049.22
2022-08-26T07:15:27.182Z,97052.19
2022-08-26T07:17:57.832Z,97054.06
2022-08-26T07:20:24.298Z,97055.03
2022-08-26T07:22:51.492Z,97053.19
2022-08-26T07:25:17.909Z,97049.97
2022-08-26T07:27:45.853Z,97057.50
2022-08-26T07:30:20.364Z,97053.47
2022-08-26T07:32:46.855Z,97058.00
2022-08-26T07:35:14.062Z,97054.97
2022-08-26T07:37:40.627Z,97057.16
2022-08-26T07:40:07.309Z,97060.19
2022-08-26T07:42:35.852Z,97066.91
2022-08-26T07:45:02.269Z,97063.72
2022-08-26T07:47:28.932Z,97062.97
2022-08-26T07:49:55.674Z,97066.97
2022-08-26T07:52:26.356Z,97065.34
2022-08-26T07:54:53.269Z,97077.72
2022-08-26T07:57:19.716Z,97064.75
2022-08-26T07:59:47.394Z,97071.72
2022-08-26T08:02:13.844Z,97067.88
2022-08-26T08:04:40.275Z,97074.94
2022-08-26T08:07:10.573Z,97068.19
2022-08-26T08:09:38.414Z,97070.16
2022-08-26T08:12:07.318Z,97075.81
2022-08-26T08:14:36.471Z,97067.97
2022-08-26T08:17:03.838Z,97067.88
2022-08-26T08:19:36.710Z,97065.19
2022-08-26T08:22:06.868Z,97072.94
2022-08-26T08:24:44.078Z,97071.66
2022-08-26T08:27:10.763Z,97076.06
2022-08-26T08:29:37.482Z,97082.78
2022-08-26T08:32:04.992Z,97082.78
2022-08-26T08:34:31.549Z,97087.28
2022-08-26T08:36:58.391Z,97076.25
2022-08-26T08:39:25.303Z,97072.66
2022-08-26T08:41:54.914Z,97072.69
2022-08-26T08:46:51.033Z,97079.94
2022-08-26T08:49:17.614Z,97073.53
2022-08-26T08:51:50.843Z,97071.25
2022-08-26T08:54:17.549Z,97066.13
2022-08-26T08:56:55.011Z,97070.50
2022-08-26T08:59:26.005Z,97069.72
2022-08-26T09:01:54.018Z,97068.09
2022-08-26T09:04:30.331Z,97068.38
2022-08-26T09:09:29.692Z,97070.19
2022-08-26T09:11:56.476Z,97059.59
2022-08-26T09:14:22.939Z,97065.69
2022-08-26T09:17:12.721Z,97069.50
2022-08-26T09:20:02.202Z,97063.44
2022-08-26T09:22:32.032Z,97067.47
2022-08-26T09:24:58.546Z,97068.72
2022-08-26T09:27:45.791Z,97075.00
2022-08-26T09:30:20.097Z,97067.69
2022-08-26T09:32:57.331Z,97064.25
2022-08-26T09:35:28.853Z,97065.25
2022-08-26T09:37:55.563Z,97066.16
2022-08-26T09:40:27.786Z,97071.84
2022-08-26T09:43:28.560Z,97065.63
2022-08-26T09:45:59.598Z,97060.06
2022-08-26T09:48:32.339Z,97060.78
2022-08-26T09:51:03.744Z,97060.63
2022-08-26T09:53:32.271Z,97057.03
2022-08-26T09:56:12.969Z,97045.91
2022-08-26T09:58:40.462Z,97055.91
2022-08-26T10:01:09.549Z,97050.53
2022-08-26T10:03:37.132Z,97045.59
2022-08-26T10:06:07.538Z,97041.06
2022-08-26T10:08:37.818Z,97036.88
2022-08-26T10:11:07.312Z,97039.31
2022-08-26T10:13:35.027Z,97039.00
2022-08-26T10:16:05.654Z,97043.56
2022-08-26T10:18:39.977Z,97032.16
2022-08-26T10:21:19.934Z,97034.28
2022-08-26T10:23:51.283Z,97034.94
2022-08-26T10:26:20.907Z,97028.94
2022-08-26T10:29:07.594Z,97025.69
2022-08-26T10:31:47.859Z,97018.25
2022-08-26T10:34:18.213Z,97014.97
2022-08-26T10:37:13.504Z,97019.78
2022-08-26T10:39:43.191Z,97020.84
2022-08-26T10:42:10.939Z,97022.75
2022-08-26T10:44:37.876Z,97017.03
2022-08-26T10:47:18.719Z,97015.50
2022-08-26T10:49:45.948Z,97011.69
2022-08-26T10:52:21.518Z,97014.00
2022-08-26T10:54:50.832Z,97004.50
2022-08-26T10:57:21.642Z,97007.66
2022-08-26T10:59:48.326Z,97013.22
2022-08-26T11:02:22.779Z,97011.22
2022-08-26T11:04:53.357Z,97007.25
2022-08-26T11:07:29.967Z,97013.13
2022-08-26T11:09:58.953Z,97007.56
2022-08-26T11:12:34.476Z,97005.28
2022-08-26T11:15:02.535Z,97006.41
2022-08-26T11:17:44.069Z,97002.69
2022-08-26T11:20:23.776Z,97001.97
2022-08-26T11:22:51.346Z,97000.63
2022-08-26T11:25:18.484Z,97002.59
2022-08-26T11:27:45.076Z,96991.03
2022-08-26T11:30:15.809Z,96987.69
2022-08-26T11:32:46.764Z,96993.28
2022-08-26T11:35:19.189Z,96988.00
2022-08-26T11:37:46.676Z,96985.84
2022-08-26T11:40:14.366Z,96982.97
2022-08-26T11:42:42.640Z,96982.78
2022-08-26T11:45:23.446Z,96981.34
2022-08-26T11:47:50.069Z,96974.88
2022-08-26T11:50:19.613Z,96978.03
2022-08-26T11:52:52.973Z,96981.06
2022-08-26T11:55:20.109Z,96979.66
2022-08-26T11:57:51.092Z,96984.44
2022-08-26T12:00:22.256Z,96984.41
2022-08-26T12:02:49.085Z,96978.84
2022-08-26T12:05:17.325Z,96976.69
2022-08-26T12:07:44.254Z,96973.06
2022-08-26T12:10:11.241Z,96975.91
2022-08-26T12:12:40.249Z,96972.94
2022-08-26T12:15:06.862Z,96977.34
2022-08-26T12:17:33.328Z,96982.66
2022-08-26T12:19:59.791Z,96978.81
2022-08-26T12:22:27.244Z,96976.19
2022-08-26T12:25:07.388Z,96977.97
2022-08-26T12:27:39.893Z,96991.69
2022-08-26T12:30:12.399Z,96972.25
2022-08-26T12:32:57.915Z,96966.72
2022-08-26T12:35:24.843Z,96976.63
2022-08-26T12:37:51.982Z,96984.59
2022-08-26T12:40:30.870Z,96981.03
2022-08-26T12:43:00.266Z,96978.69
2022-08-26T12:45:28.553Z,96978.88
2022-08-26T12:47:56.233Z,96970.13
2022-08-26T12:50:27.048Z,96977.97
2022-08-26T12:52:57.373Z,96963.94
2022-08-26T12:55:23.780Z,96958.09
2022-08-26T12:57:50.308Z,96968.56
2022-08-26T13:00:28.464Z,96966.50
2022-08-26T13:02:55.130Z,96969.38
2022-08-26T13:05:33.238Z,96974.41
2022-08-26T13:08:10.567Z,96975.59
2022-08-26T13:10:37.765Z,96986.53
2022-08-26T13:13:04.239Z,96980.13
2022-08-26T13:15:30.735Z,96986.44
2022-08-26T13:17:58.485Z,96993.56
2022-08-26T13:20:25.008Z,96977.03
2022-08-26T13:22:53.807Z,96986.47
2022-08-26T13:25:25.429Z,96988.94
2022-08-26T13:27:51.866Z,96978.66
2022-08-26T13:30:18.313Z,96968.44
2022-08-26T13:32:44.745Z,96976.28
2022-08-26T13:35:11.503Z,96987.81
2022-08-26T13:37:37.909Z,96985.91
2022-08-26T13:40:05.554Z,96988.56
2022-08-26T13:42:31.997Z,96994.38
2022-08-26T13:44:59.731Z,96990.84
2022-08-26T13:47:27.154Z,96997.50
2022-08-26T13:49:54.483Z,96999.44
2022-08-26T13:52:29.150Z,96999.81
2022-08-26T13:54:57.316Z,97009.84
2022-08-26T13:57:24.702Z,97018.97
2022-08-26T13:59:51.732Z,97022.44
2022-08-26T14:02:18.159Z,97009.28
2022-08-26T14:04:44.614Z,97005.25
2022-08-26T14:07:11.033Z,96996.72
2022-08-26T14:09:38.501Z,96991.59
2022-08-26T14:12:05.059Z,97007.84
2022-08-26T14:14:31.494Z,97006.84
2022-08-26T14:16:59.482Z,97010.66
2022-08-26T14:19:26.372Z,97013.38
2022-08-26T14:21:53.924Z,97016.94
2022-08-26T14:24:20.355Z,97019.22
2022-08-26T14:26:48.486Z,97020.13
2022-08-26T14:29:16.763Z,97013.28
2022-08-26T14:31:43.545Z,97016.78
2022-08-26T14:34:10.053Z,97001.47
2022-08-26T14:36:36.629Z,97001.84
2022-08-26T14:39:04.876Z,97001.47
2022-08-26T14:41:31.667Z,96996.78
2022-08-26T14:44:05.599Z,96991.81
2022-08-26T14:46:33.440Z,97001.91
2022-08-26T14:49:01.507Z,97003.00
2022-08-26T14:51:28.531Z,97000.56
2022-08-26T14:54:13.240Z,97001.38
2022-08-26T14:56:46.192Z,97000.53
2022-08-26T14:59:17.542Z,97000.84
2022-08-26T15:01:44.151Z,97003.59
2022-08-26T15:04:10.694Z,97001.59
2022-08-26T15:06:37.163Z,97005.84
2022-08-26T15:09:03.923Z,96998.66
2022-08-26T15:11:30.409Z,97005.56
2022-08-26T15:13:57.351Z,97007.88
2022-08-26T15:16:24.093Z,97012.41
2022-08-26T15:18:51.552Z,97012.53
2022-08-26T15:21:19.301Z,97005.38
2022-08-26T15:23:47.674Z,97003.53
2022-08-26T15:26:14.996Z,97000.31
2022-08-26T15:28:41.484Z,97005.19
2022-08-26T15:31:08.358Z,97004.41
2022-08-26T15:33:35.247Z,97008.97
2022-08-26T15:36:02.523Z,97001.94
2022-08-26T15:38:30.111Z,96998.66
2022-08-26T15:40:58.744Z,96992.50
2022-08-26T15:43:29.340Z,96988.53
2022-08-26T15:45:56.002Z,96991.25
2022-08-26T15:48:22.545Z,96991.31
2022-08-26T15:50:50.500Z,96997.34
2022-08-26T15:53:17.382Z,96993.88
2022-08-26T15:55:43.831Z,96992.31
2022-08-26T15:58:10.457Z,97006.09
2022-08-26T16:00:37.146Z,96994.50
2022-08-26T16:03:03.923Z,97000.72
2022-08-26T16:05:30.363Z,97001.53
2022-08-26T16:07:56.832Z,97006.66
2022-08-26T16:10:23.264Z,97005.84
2022-08-26T16:12:49.800Z,97002.88
2022-08-26T16:15:16.781Z,97000.75
2022-08-26T16:17:43.238Z,97012.31
2022-08-26T16:20:09.739Z,97005.56
2022-08-26T16:22:36.278Z,97012.03
2022-08-26T16:25:02.786Z,97014.75
2022-08-26T16:27:29.280Z,97012.81
2022-08-26T16:29:55.840Z,97013.09
2022-08-26T16:32:22.304Z,97009.03
2022-08-26T16:34:56.654Z,97015.41
2022-08-26T16:37:23.533Z,97015.69
2022-08-26T16:39:50.010Z,97016.75
2022-08-26T16:42:16.498Z,97013.69
2022-08-26T16:44:45.834Z,97024.16
2022-08-26T16:47:13.041Z,97032.22
2022-08-26T16:49:39.630Z,97030.41
2022-08-26T16:52:06.403Z,97030.41
2022-08-26T16:54:32.857Z,97022.06
2022-08-26T16:56:59.344Z,97027.97
2022-08-26T16:59:25.921Z,97034.13
2022-08-26T17:01:52.418Z,97034.84
2022-08-26T17:04:19.750Z,97038.03
2022-08-26T17:06:46.380Z,97042.16
2022-08-26T17:09:12.806Z,97047.53
2022-08-26T17:11:39.254Z,97048.03
2022-08-26T17:14:05.732Z,97055.06
2022-08-26T17:16:32.416Z,97054.03
2022-08-26T17:18:59.247Z,97056.19
2022-08-26T17:21:26.293Z,97062.38
2022-08-26T17:23:52.951Z,97066.91
2022-08-26T17:26:19.387Z,97065.53
2022-08-26T17:28:45.819Z,97055.53
2022-08-26T17:31:13.049Z,97061.72
2022-08-26T17:33:39.699Z,97064.00
2022-08-26T17:36:07.048Z,97063.84
2022-08-26T17:38:33.741Z,97056.78
2022-08-26T17:41:00.207Z,97055.25
2022-08-26T17:43:26.901Z,97052.09
2022-08-26T17:46:07.223Z,97047.84
2022-08-26T17:48:34.209Z,97054.28
2022-08-26T17:51:00.690Z,97059.09
2022-08-26T17:53:27.131Z,97058.28
2022-08-26T17:55:53.618Z,97056.16
2022-08-26T17:58:23.222Z,97058.06
2022-08-26T18:00:51.318Z,97056.44
2022-08-26T18:03:19.026Z,97062.31
2022-08-26T18:05:49.397Z,97059.38
2022-08-26T18:08:15.868Z,97054.72
2022-08-26T18:10:42.989Z,97055.88
2022-08-26T18:13:09.578Z,97056.69
2022-08-26T18:15:38.768Z,97062.56
2022-08-26T18:18:05.452Z,97058.50
2022-08-26T18:20:31.893Z,97065.19
2022-08-26T18:22:58.325Z,97052.22
2022-08-26T18:25:24.789Z,97055.19
2022-08-26T18:27:51.633Z,97055.22
2022-08-26T18:30:20.662Z,97051.56
2022-08-26T18:32:50.491Z,97053.47
2022-08-26T18:35:16.934Z,97054.03
2022-08-26T18:37:44.390Z,97051.81
2022-08-26T18:40:11.813Z,97056.84
2022-08-26T18:42:38.487Z,97059.28
2022-08-26T18:45:05.762Z,97060.09
2022-08-26T18:47:32.299Z,97059.44
2022-08-26T18:49:58.774Z,97065.88
2022-08-26T18:52:25.319Z,97060.00
2022-08-26T18:54:51.819Z,97054.22
2022-08-26T18:57:18.271Z,97048.50
2022-08-26T18:59:44.713Z,97049.16
2022-08-26T19:02:11.245Z,97043.19
2022-08-26T19:04:40.941Z,97040.06
2022-08-26T19:07:07.636Z,97052.47
2022-08-26T19:09:34.321Z,97050.41
2022-08-26T19:12:03.086Z,97049.56
2022-08-26T19:14:29.772Z,97047.28
2022-08-26T19:16:56.285Z,97038.69
2022-08-26T19:19:25.686Z,97048.56
2022-08-26T19:21:52.598Z,97046.50
2022-08-26T19:24:19.094Z,97045.44
2022-08-26T19:26:47.619Z,97052.75
2022-08-26T19:29:15.243Z,97054.06
2022-08-26T19:31:42.320Z,97064.97
2022-08-26T19:34:10.564Z,97063.66
2022-08-26T19:36:37.767Z,97068.03
2022-08-26T19:39:05.356Z,97076.41
2022-08-26T19:41:37.479Z,97079.94
2022-08-26T19:44:05.812Z,97079.19
2022-08-26T19:46:32.323Z,97075.22
2022-08-26T19:48:58.896Z,97077.44
2022-08-26T19:51:26.476Z,97085.88
2022-08-26T19:53:53.341Z,97089.66
2022-08-26T19:56:20.342Z,97085.16
2022-08-26T19:58:46.814Z,97085.16
2022-08-26T20:01:13.662Z,97087.84
2022-08-26T20:03:40.679Z,97091.78
2022-08-26T20:06:07.925Z,97090.91
2022-08-26T20:08:34.935Z,97099.19
2022-08-26T20:11:05.862Z,97099.00
2022-08-26T20:13:32.702Z,97090.81
2022-08-26T20:15:59.171Z,97093.50
2022-08-26T20:18:44.297Z,97092.34
2022-08-26T20:21:29.449Z,97097.63
2022-08-26T20:23:58.346Z,97098.53
2022-08-26T20:26:26.398Z,97095.28
2022-08-26T20:28:52.837Z,97099.59
2022-08-26T20:31:19.570Z,97095.28
2022-08-26T20:33:46.771Z,97099.13
2022-08-26T20:36:13.557Z,97097.72
2022-08-26T20:38:39.990Z,97103.88
2022-08-26T20:41:06.433Z,97102.63
2022-08-26T20:43:32.847Z,97102.44
2022-08-26T20:46:00.172Z,97106.97
2022-08-26T20:48:26.675Z,97099.19
2022-08-26T20:50:56.217Z,97096.91
2022-08-26T20:53:22.644Z,97095.28
2022-08-26T20:55:53.748Z,97105.19
2022-08-26T20:58:20.719Z,97107.31
2022-08-26T21:00:47.243Z,97104.16
2022-08-26T21:03:14.343Z,97109.28
2022-08-26T21:05:40.820Z,97113.09
2022-08-26T21:08:07.244Z,97115.28
2022-08-26T21:10:33.880Z,97123.88
2022-08-26T21:13:00.486Z,97116.72
2022-08-26T21:15:26.945Z,97118.94
2022-08-26T21:17:53.371Z,97122.31
2022-08-26T21:20:19.915Z,97121.97
2022-08-26T21:22:46.566Z,97129.28
2022-08-26T21:25:13.030Z,97120.91
2022-08-26T21:27:39.494Z,97120.91
2022-08-26T21:30:06.165Z,97132.84
2022-08-26T21:32:32.596Z,97128.31
2022-08-26T21:34:59.739Z,97135.78
2022-08-26T21:37:27.143Z,97123.94
2022-08-26T21:39:54.467Z,97125.94
2022-08-26T21:42:20.958Z,97122.03
2022-08-26T21:44:52.799Z,97128.31
2022-08-26T21:47:22.585Z,97124.22
2022-08-26T21:49:49.103Z,97121.66
2022-08-26T21:52:15.524Z,97116.22
2022-08-26T21:54:41.989Z,97119.88
2022-08-26T21:57:15.967Z,97127.16
2022-08-26T21:59:42.474Z,97123.03
2022-08-26T22:02:08.982Z,97123.84
2022-08-26T22:04:35.811Z,97116.38
2022-08-26T22:07:02.252Z,97116.63
2022-08-26T22:09:30.849Z,97122.22
2022-08-26T22:11:57.999Z,97117.75
2022-08-26T22:14:30.778Z,97126.34
2022-08-26T22:16:57.974Z,97121.16
2022-08-26T22:19:24.549Z,97129.94
2022-08-26T22:21:52.919Z,97135.53
2022-08-26T22:24:19.903Z,97138.28
2022-08-26T22:26:46.789Z,97136.13
2022-08-26T22:29:13.286Z,97124.69
2022-08-26T22:31:40.226Z,97126.16
2022-08-26T22:34:07.901Z,97131.41
2022-08-26T22:36:34.386Z,97135.53
2022-08-26T22:39:01.034Z,97141.44
2022-08-26T22:41:27.809Z,97127.38
2022-08-26T22:43:54.481Z,97133.09
2022-08-26T22:46:25.118Z,97129.81
2022-08-26T22:48:53.875Z,97123.53
2022-08-26T22:51:20.782Z,97120.53
2022-08-26T22:53:47.354Z,97122.25
2022-08-26T22:56:14.207Z,97121.13
2022-08-26T22:58:40.967Z,97116.34
2022-08-26T23:01:07.727Z,97114.97
2022-08-26T23:03:34.265Z,97113.31
2022-08-26T23:06:01.001Z,97119.03
2022-08-26T23:08:27.548Z,97114.84
2022-08-26T23:10:54.017Z,97113.47
2022-08-26T23:13:20.472Z,97117.28
2022-08-26T23:15:46.944Z,97109.84
2022-08-26T23:18:14.115Z,97111.38
2022-08-26T23:20:40.773Z,97111.22
2022-08-26T23:23:07.363Z,97120.69
2022-08-26T23:25:33.887Z,97113.09
2022-08-26T23:28:00.572Z,97114.13
2022-08-26T23:30:27.967Z,97103.84
2022-08-26T23:32:54.416Z,97106.72
2022-08-26T23:35:21.570Z,97107.53
2022-08-26T23:37:50.135Z,97101.28
2022-08-26T23:40:27.641Z,97098.03
2022-08-26T23:42:54.869Z,97093.25
2022-08-26T23:45:21.955Z,97091.97
2022-08-26T23:47:50.507Z,97092.69
2022-08-26T23:50:17.971Z,97096.38
2022-08-26T23:53:05.680Z,97097.41
2022-08-26T23:55:39.058Z,97099.53
2022-08-26T23:58:05.729Z,97092.66
